Hlavní strana
METAR-TAF:

METAR-TAF

Letiště :

Letiště Málaga

Málaga, Španělsko

zeměpisná šířka: 36-40N, zeměpisná délka: 004-29W, výška: 16 m

Aktuální stav počasí

Zpráva byla vytvořena před 17 minutami, v 04:30 UTC
Západoseverozápadní vítr 8 kt
Teplota 15°C
Vlhkost vzduchu 82%
Tlak 1023 hPa
Viditelnost 10 km a více
Žádná oblačnost pod 1500 m, nevyskytují se cumulonimby.

METAR: LEMG 260430Z 29008KT CAVOK 15/12 Q1023 NOSIG

Čas: 06:47 (04:47 UTC)

Předpověď počasí

Zpráva byla vytvořena před 5 hodinami a 47 minutami, v 23:00 UTC
Předpověď platná od 26 v 00 UTC do 26 v 24 UTC
Západoseverozápadní vítr 6 kt
Viditelnost 10 km a více
Žádná oblačnost pod 1500 m, nevyskytují se cumulonimby.
Změna
od 26 v 08 UTC do 26 v 10 UTC
Jihovýchodní vítr 6 kt
Změna
od 26 v 20 UTC do 26 v 22 UTC
Západoseverozápadní vítr 5 kt

TAF: LEMG 252300Z 2600/2624 29006KT CAVOK TX27/2613Z TN15/2606Z BECMG 2608/2610 13006KT BECMG 2620/2622 29005KT

Stav a předpovědi počasí z více než 4 000 letišť (zprávy METAR a TAF).

Červené a žluté tečky na mapě představují dostupné meteorologické stanice.

Když kurzor umístíte na tečku, zobrazí se název stanice.

Pak kliknutím zobrazíte stav a předpověď počasí.

Chcete-li změnit mapu, kliknutím na zelené tlačítko se znaménkem +mapu přiblížíte, kliknutím na zelené tlačítko se znaménkem – mapu oddálíte a kliknutím na zelené šipky přejdete na sousední mapy.


METAR-TAF: